Time;durP1;ratioP1;P1;durP2;ratioP2;P2;SDS_P1;SDS_P2;PMS_P1;PMS_P2;Temp;Humidity;BMP_temperature;BMP_pressure;BME280_temperature;BME280_humidity;BME280_pressure;Samples;Min_cycle;Max_cycle;Signal;HPM_P1;HPM_P2
2023/01/08 00:01:59;;;;;;;8.05;4.15;;;10.00;99.90;;;;;;5028911;28;20042;-62
2023/01/08 00:04:25;;;;;;;5.22;3.75;;;10.10;99.90;;;;;;4997914;28;20056;-62
2023/01/08 00:06:50;;;;;;;6.78;3.50;;;10.10;99.90;;;;;;5026919;28;20089;-63
2023/01/08 00:09:16;;;;;;;5.07;3.67;;;10.10;99.90;;;;;;5026515;28;20053;-60
2023/01/08 00:11:43;;;;;;;5.53;3.35;;;10.10;99.90;;;;;;5008033;28;20600;-63
2023/01/08 00:14:09;;;;;;;6.40;3.95;;;10.00;99.90;;;;;;4977971;28;20069;-62
2023/01/08 00:16:35;;;;;;;6.90;3.78;;;10.10;99.90;;;;;;5006893;28;20404;-62
2023/01/08 00:19:00;;;;;;;6.55;3.55;;;10.10;99.90;;;;;;5011003;28;20029;-63
2023/01/08 00:21:26;;;;;;;7.53;4.03;;;10.10;99.90;;;;;;4996114;23;20042;-59
2023/01/08 00:23:52;;;;;;;6.03;3.50;;;10.10;99.90;;;;;;4982059;28;20524;-57
2023/01/08 00:26:18;;;;;;;7.85;3.42;;;10.00;99.90;;;;;;4979449;28;20177;-59
2023/01/08 00:28:44;;;;;;;6.18;4.35;;;10.00;99.90;;;;;;4981091;28;20053;-60
2023/01/08 00:31:11;;;;;;;7.53;3.95;;;10.00;99.90;;;;;;4985734;28;20043;-57
2023/01/08 00:33:37;;;;;;;5.57;3.60;;;10.00;99.90;;;;;;5011071;23;20050;-62
2023/01/08 00:36:15;;;;;;;5.82;3.63;;;10.00;99.90;;;;;;5000447;28;20121;-62
2023/01/08 00:38:42;;;;;;;7.50;4.20;;;10.00;99.90;;;;;;5001560;28;20042;-62
2023/01/08 00:41:08;;;;;;;7.25;3.70;;;10.00;99.90;;;;;;5000149;28;20113;-62
2023/01/08 00:43:34;;;;;;;6.80;3.88;;;10.00;99.90;;;;;;4988210;28;20120;-61
2023/01/08 00:45:59;;;;;;;5.32;3.60;;;10.00;99.90;;;;;;5002127;28;20129;-62
2023/01/08 00:48:25;;;;;;;6.95;3.70;;;9.90;99.90;;;;;;4986680;28;20072;-62
2023/01/08 00:50:52;;;;;;;6.40;3.83;;;9.90;99.90;;;;;;4979737;28;20034;-62
2023/01/08 00:53:20;;;;;;;7.03;3.95;;;9.90;99.90;;;;;;5000328;28;20383;-62
2023/01/08 00:55:46;;;;;;;7.78;3.33;;;9.90;99.90;;;;;;5002033;28;20049;-62
2023/01/08 00:58:12;;;;;;;7.43;3.05;;;9.90;99.90;;;;;;4993994;28;20038;-62
2023/01/08 01:00:39;;;;;;;5.38;3.00;;;9.80;99.90;;;;;;5000800;28;20049;-62
2023/01/08 01:03:05;;;;;;;5.25;2.75;;;9.80;99.90;;;;;;5000523;28;20041;-62
2023/01/08 01:05:30;;;;;;;6.68;2.58;;;9.80;99.90;;;;;;4981997;28;20038;-62
2023/01/08 01:07:57;;;;;;;6.40;2.70;;;9.80;99.90;;;;;;4997302;28;20185;-62
2023/01/08 01:10:23;;;;;;;6.95;2.30;;;9.80;99.90;;;;;;4982150;28;20041;-62
2023/01/08 01:12:49;;;;;;;6.40;2.40;;;9.70;99.90;;;;;;4995091;28;20496;-62
2023/01/08 01:15:17;;;;;;;8.18;2.00;;;9.70;99.90;;;;;;4977416;28;20222;-62
2023/01/08 01:17:44;;;;;;;8.85;3.10;;;9.70;99.90;;;;;;4981831;28;20570;-62
2023/01/08 01:20:13;;;;;;;8.65;2.60;;;9.70;99.90;;;;;;4981804;28;20037;-62
2023/01/08 01:22:39;;;;;;;6.00;2.20;;;9.70;99.90;;;;;;4994783;28;20488;-61
2023/01/08 01:25:06;;;;;;;10.23;2.72;;;9.70;99.90;;;;;;4997640;28;20489;-62
2023/01/08 01:27:31;;;;;;;7.05;2.35;;;9.70;99.90;;;;;;4984940;28;20285;-62
2023/01/08 01:29:58;;;;;;;7.57;2.15;;;9.70;99.90;;;;;;4986586;28;20045;-62
2023/01/08 01:32:23;;;;;;;6.22;2.38;;;9.70;99.90;;;;;;5004052;28;20835;-62
2023/01/08 01:34:49;;;;;;;8.05;3.00;;;9.80;99.90;;;;;;5003456;28;20033;-62
2023/01/08 01:37:15;;;;;;;11.65;2.72;;;9.70;99.90;;;;;;5004200;28;20042;-62
2023/01/08 01:39:45;;;;;;;4.32;2.38;;;9.70;99.90;;;;;;4971294;28;20775;-62
2023/01/08 01:42:38;;;;;;;8.05;2.75;;;9.70;99.90;;;;;;5000329;28;20082;-62
2023/01/08 01:44:59;;;;;;;7.55;2.47;;;9.70;99.90;;;;;;5004714;28;20120;-62
2023/01/08 01:47:37;;;;;;;9.00;2.67;;;9.70;99.90;;;;;;5017793;28;20133;-62
2023/01/08 01:50:11;;;;;;;9.07;3.22;;;9.60;99.90;;;;;;4999047;28;20393;-62
2023/01/08 01:52:47;;;;;;;10.98;2.67;;;9.60;99.90;;;;;;4980056;28;20053;-62
2023/01/08 01:55:14;;;;;;;7.15;2.90;;;9.40;99.90;;;;;;4998424;28;20038;-62
2023/01/08 01:57:47;;;;;;;13.43;2.63;;;9.60;99.90;;;;;;4982190;28;20038;-62
2023/01/08 02:00:13;;;;;;;10.10;2.65;;;9.60;99.90;;;;;;4996688;28;20531;-61
2023/01/08 02:02:39;;;;;;;7.82;2.28;;;9.50;99.90;;;;;;4999449;28;20057;-62
2023/01/08 02:05:05;;;;;;;8.50;2.80;;;9.50;99.90;;;;;;4981962;28;20045;-62
2023/01/08 02:07:55;;;;;;;11.55;2.55;;;9.50;99.90;;;;;;5001078;28;20480;-61
2023/01/08 02:10:57;;;;;;;10.20;3.10;;;9.50;99.90;;;;;;4998130;28;20071;-62
2023/01/08 02:13:28;;;;;;;13.07;2.47;;;9.50;99.90;;;;;;4981354;28;20053;-62
2023/01/08 02:16:07;;;;;;;7.93;2.22;;;9.40;99.90;;;;;;4996526;28;20116;-62
2023/01/08 02:18:49;;;;;;;8.90;2.28;;;9.40;99.90;;;;;;5001297;28;20081;-62
2023/01/08 02:22:02;;;;;;;11.40;2.53;;;9.40;99.90;;;;;;5018773;28;20509;-62
2023/01/08 02:24:52;;;;;;;8.52;2.50;;;9.40;99.90;;;;;;4963489;28;20054;-62
2023/01/08 02:27:21;;;;;;;12.80;2.33;;;9.30;99.90;;;;;;4997264;28;20041;-62
2023/01/08 02:29:47;;;;;;;9.68;2.22;;;9.30;99.90;;;;;;4998999;28;20461;-62
2023/01/08 02:32:13;;;;;;;12.02;2.40;;;9.20;99.90;;;;;;4986874;28;20042;-61
2023/01/08 02:34:39;;;;;;;15.20;4.18;;;9.20;99.90;;;;;;5002466;28;20057;-62
2023/01/08 02:37:05;;;;;;;9.57;2.00;;;9.20;99.90;;;;;;5005551;28;21374;-61
2023/01/08 02:40:04;;;;;;;16.08;2.55;;;9.20;99.90;;;;;;5003909;28;20045;-62
2023/01/08 02:42:58;;;;;;;9.75;2.08;;;9.20;99.90;;;;;;5004588;28;20088;-61
2023/01/08 02:45:51;;;;;;;14.20;2.92;;;9.20;99.90;;;;;;5001862;28;20656;-62
2023/01/08 02:48:40;;;;;;;17.33;2.55;;;9.20;99.90;;;;;;4978044;28;20049;-62
2023/01/08 02:51:29;;;;;;;15.02;2.80;;;9.10;99.90;;;;;;5016437;28;20053;-62
2023/01/08 02:54:00;;;;;;;15.20;2.83;;;9.10;99.90;;;;;;4982706;28;20052;-61
2023/01/08 02:56:32;;;;;;;14.02;2.53;;;9.10;99.90;;;;;;5005395;28;20053;-62
2023/01/08 02:58:59;;;;;;;9.20;2.67;;;9.10;99.90;;;;;;5008239;28;20104;-62
2023/01/08 03:01:26;;;;;;;16.63;2.55;;;9.00;99.90;;;;;;5000889;28;20136;-62
2023/01/08 03:03:58;;;;;;;13.43;2.20;;;9.00;99.90;;;;;;4988021;28;20073;-62
2023/01/08 03:06:25;;;;;;;11.85;2.38;;;9.00;99.90;;;;;;5008664;28;20041;-61
2023/01/08 03:08:52;;;;;;;11.57;2.65;;;9.00;99.90;;;;;;5009957;28;20134;-61
2023/01/08 03:11:23;;;;;;;10.15;1.98;;;8.90;99.90;;;;;;5005550;28;20046;-62
2023/01/08 03:14:14;;;;;;;13.20;2.55;;;8.90;99.90;;;;;;5003064;28;20069;-62
2023/01/08 03:16:42;;;;;;;15.18;3.67;;;8.90;99.90;;;;;;5006217;28;20120;-61
2023/01/08 03:19:41;;;;;;;14.23;2.85;;;8.80;99.90;;;;;;5013013;28;20464;-62
2023/01/08 03:22:11;;;;;;;13.98;3.80;;;8.80;99.90;;;;;;4997933;28;20052;-62
2023/01/08 03:24:38;;;;;;;13.85;3.58;;;8.80;99.90;;;;;;4998725;28;20046;-62
2023/01/08 03:27:08;;;;;;;14.45;2.90;;;8.70;99.90;;;;;;5011748;28;20038;-62
2023/01/08 03:29:36;;;;;;;15.02;2.85;;;8.70;99.90;;;;;;5005647;28;20122;-62
2023/01/08 03:32:07;;;;;;;13.52;2.80;;;8.70;99.90;;;;;;5001743;28;20566;-62
2023/01/08 03:34:36;;;;;;;13.20;2.90;;;8.70;99.90;;;;;;5005003;28;20493;-62
2023/01/08 03:37:06;;;;;;;11.60;2.05;;;8.70;99.90;;;;;;4997853;28;20397;-62
2023/01/08 03:39:51;;;;;;;11.77;2.63;;;8.60;99.90;;;;;;5008534;28;20263;-62
2023/01/08 03:42:20;;;;;;;14.30;2.10;;;8.70;99.90;;;;;;5009119;28;20046;-61
2023/01/08 03:44:46;;;;;;;8.93;1.83;;;8.60;99.90;;;;;;5000926;28;20034;-62
2023/01/08 03:47:13;;;;;;;11.25;2.30;;;8.60;99.90;;;;;;4995806;28;20038;-61
2023/01/08 03:49:42;;;;;;;12.82;2.67;;;8.60;99.90;;;;;;5002103;28;20045;-61
2023/01/08 03:52:08;;;;;;;16.77;2.20;;;8.60;99.90;;;;;;5005451;28;20038;-62
2023/01/08 03:54:35;;;;;;;8.07;2.03;;;8.60;99.90;;;;;;5001054;28;20554;-62
2023/01/08 03:57:01;;;;;;;11.73;2.50;;;8.60;99.90;;;;;;4986188;28;20045;-62
2023/01/08 03:59:27;;;;;;;14.63;2.17;;;8.60;99.90;;;;;;4980538;28;20045;-60
2023/01/08 04:01:53;;;;;;;8.13;2.25;;;8.60;99.90;;;;;;5002211;28;20034;-62
2023/01/08 04:04:18;;;;;;;13.43;2.63;;;8.60;99.90;;;;;;4999132;28;20045;-61
2023/01/08 04:06:44;;;;;;;6.63;2.00;;;8.70;99.90;;;;;;4968432;28;20045;-62
2023/01/08 04:09:10;;;;;;;8.05;2.42;;;8.60;99.90;;;;;;5004629;28;20057;-62
2023/01/08 04:11:36;;;;;;;9.13;2.17;;;8.50;99.90;;;;;;5000848;28;20057;-62
2023/01/08 04:14:01;;;;;;;11.43;2.53;;;8.50;99.90;;;;;;5003749;28;20041;-62
2023/01/08 04:16:27;;;;;;;8.57;2.60;;;8.60;99.90;;;;;;5003663;28;20120;-62
2023/01/08 04:18:53;;;;;;;11.63;2.28;;;8.50;99.90;;;;;;5004073;28;20034;-62
2023/01/08 04:21:18;;;;;;;9.48;2.40;;;8.50;99.90;;;;;;4995695;28;20036;-62
2023/01/08 04:23:44;;;;;;;6.78;2.47;;;8.50;99.90;;;;;;4981236;28;20050;-62
2023/01/08 04:26:10;;;;;;;9.20;2.50;;;8.60;99.90;;;;;;5002199;28;20089;-62
2023/01/08 04:28:36;;;;;;;8.27;3.08;;;8.50;99.90;;;;;;4980670;28;20511;-62
2023/01/08 04:31:08;;;;;;;8.15;2.50;;;8.50;99.90;;;;;;4982489;28;20053;-62
2023/01/08 04:33:34;;;;;;;10.02;2.45;;;8.50;99.90;;;;;;5003389;28;20405;-62
2023/01/08 04:36:00;;;;;;;9.30;2.53;;;8.50;99.90;;;;;;5003202;28;20044;-62
2023/01/08 04:38:26;;;;;;;7.75;2.13;;;8.50;99.90;;;;;;5004370;28;20128;-62
2023/01/08 04:40:59;;;;;;;10.75;2.65;;;8.50;99.90;;;;;;5003132;28;20124;-62
2023/01/08 04:43:26;;;;;;;6.88;2.42;;;8.50;99.90;;;;;;5000673;28;20045;-62
2023/01/08 04:45:51;;;;;;;8.13;2.53;;;8.50;99.90;;;;;;5001594;28;20253;-62
2023/01/08 04:48:17;;;;;;;9.75;2.42;;;8.50;99.90;;;;;;4985468;28;20072;-62
2023/01/08 04:50:43;;;;;;;4.90;2.40;;;8.50;99.90;;;;;;5004034;28;20396;-62
2023/01/08 04:53:09;;;;;;;8.32;3.08;;;8.50;99.90;;;;;;5000431;28;20048;-62
2023/01/08 04:55:35;;;;;;;8.90;2.20;;;8.50;99.90;;;;;;4999429;28;20587;-61
2023/01/08 04:58:00;;;;;;;7.25;2.28;;;8.50;99.90;;;;;;5001369;28;20093;-61
2023/01/08 05:00:26;;;;;;;8.30;2.58;;;8.50;99.90;;;;;;4986527;28;20066;-61
2023/01/08 05:02:52;;;;;;;5.68;2.00;;;8.50;99.90;;;;;;4999219;28;20184;-61
2023/01/08 05:05:18;;;;;;;5.53;2.10;;;8.50;99.90;;;;;;5004251;28;20042;-61
2023/01/08 05:07:43;;;;;;;6.55;2.03;;;8.50;99.90;;;;;;5004615;28;20123;-61
2023/01/08 05:10:09;;;;;;;4.68;2.15;;;8.50;99.90;;;;;;4968703;28;20197;-61
2023/01/08 05:12:35;;;;;;;5.40;2.08;;;8.50;99.90;;;;;;4997596;28;20042;-61
2023/01/08 05:15:01;;;;;;;4.53;1.90;;;8.50;99.90;;;;;;4982864;28;20351;-61
2023/01/08 05:17:27;;;;;;;6.60;2.17;;;8.50;99.90;;;;;;5003352;28;20038;-62
2023/01/08 05:19:52;;;;;;;7.50;2.00;;;8.50;99.90;;;;;;4985196;28;20528;-61
2023/01/08 05:22:18;;;;;;;8.25;2.90;;;8.50;99.90;;;;;;5004103;28;20042;-61
2023/01/08 05:24:44;;;;;;;5.22;2.03;;;8.50;99.90;;;;;;4971892;28;20049;-61
2023/01/08 05:27:09;;;;;;;7.93;2.13;;;8.50;99.90;;;;;;5009548;28;20092;-61
2023/01/08 05:29:35;;;;;;;9.50;2.15;;;8.50;99.90;;;;;;4978347;28;20133;-61
2023/01/08 05:32:01;;;;;;;5.35;2.50;;;8.50;99.90;;;;;;5004563;28;20041;-61
2023/01/08 05:34:27;;;;;;;6.75;1.98;;;8.40;99.90;;;;;;4997643;28;20049;-61
2023/01/08 05:36:52;;;;;;;3.33;1.80;;;8.40;99.90;;;;;;4986195;28;20281;-61
2023/01/08 05:39:18;;;;;;;7.70;2.30;;;8.40;99.90;;;;;;4966657;28;20042;-60
2023/01/08 05:41:44;;;;;;;7.20;2.30;;;8.40;99.90;;;;;;4995983;28;20113;-61
2023/01/08 05:44:09;;;;;;;7.93;2.58;;;8.30;99.90;;;;;;4981052;28;20049;-61
2023/01/08 05:46:35;;;;;;;6.60;2.28;;;8.30;99.90;;;;;;4980489;28;20494;-61
2023/01/08 05:49:01;;;;;;;7.25;2.33;;;8.30;99.90;;;;;;4999525;28;20045;-61
2023/01/08 05:51:26;;;;;;;6.03;2.20;;;8.30;99.90;;;;;;4987959;28;20049;-60
2023/01/08 05:53:52;;;;;;;9.35;2.05;;;8.20;99.90;;;;;;4978253;28;20048;-61
2023/01/08 05:56:18;;;;;;;7.07;2.50;;;8.20;99.90;;;;;;4996277;28;21315;-61
2023/01/08 05:58:43;;;;;;;9.25;2.53;;;8.20;99.90;;;;;;4982389;28;20111;-62
2023/01/08 06:01:12;;;;;;;7.15;2.42;;;8.20;99.90;;;;;;4986310;28;20034;-61
2023/01/08 06:03:38;;;;;;;6.00;2.42;;;8.20;99.90;;;;;;4997918;28;20026;-61
2023/01/08 06:06:06;;;;;;;9.77;2.60;;;8.10;99.90;;;;;;4986528;28;20030;-61
2023/01/08 06:08:32;;;;;;;7.07;2.53;;;8.10;99.90;;;;;;5001217;28;20045;-61
2023/01/08 06:11:04;;;;;;;9.73;2.30;;;8.10;99.90;;;;;;5001988;28;20118;-61
2023/01/08 06:13:30;;;;;;;7.82;2.38;;;8.10;99.90;;;;;;5001714;28;20381;-61
2023/01/08 06:16:01;;;;;;;8.48;2.50;;;8.00;99.90;;;;;;4990488;28;20488;-61
2023/01/08 06:18:28;;;;;;;6.03;2.03;;;8.00;99.90;;;;;;4989386;28;20119;-61
2023/01/08 06:20:54;;;;;;;4.22;1.65;;;8.00;99.90;;;;;;5006313;28;20034;-61
2023/01/08 06:23:20;;;;;;;8.23;2.13;;;8.00;99.90;;;;;;5004768;28;20037;-61
2023/01/08 06:25:54;;;;;;;7.00;2.17;;;7.90;99.90;;;;;;5000348;28;20064;-61
2023/01/08 06:28:20;;;;;;;8.48;2.05;;;7.90;99.90;;;;;;5002480;28;20046;-61
2023/01/08 06:30:46;;;;;;;4.80;2.05;;;7.90;99.90;;;;;;4999346;28;20034;-61
2023/01/08 06:33:12;;;;;;;8.02;2.40;;;7.90;99.90;;;;;;4979608;28;20037;-62
2023/01/08 06:35:38;;;;;;;7.07;2.15;;;7.90;99.90;;;;;;5002377;23;20536;-58
2023/01/08 06:38:03;;;;;;;4.78;1.95;;;7.90;99.90;;;;;;4976549;28;20845;-59
2023/01/08 06:40:29;;;;;;;7.35;1.98;;;7.90;99.90;;;;;;4992802;28;20038;-59
2023/01/08 06:42:55;;;;;;;8.63;2.28;;;7.90;99.90;;;;;;4979909;28;20045;-60
2023/01/08 06:45:20;;;;;;;9.32;1.60;;;7.90;99.90;;;;;;4967580;28;20034;-59
2023/01/08 06:47:46;;;;;;;8.43;2.13;;;7.80;99.90;;;;;;4964564;28;20038;-60
2023/01/08 06:50:12;;;;;;;7.55;2.17;;;7.80;99.90;;;;;;4960838;28;20516;-58
2023/01/08 06:52:38;;;;;;;7.95;1.73;;;7.80;99.90;;;;;;4995649;28;20034;-58
2023/01/08 06:55:04;;;;;;;9.52;2.00;;;7.80;99.90;;;;;;4964642;28;20405;-58
2023/01/08 06:57:30;;;;;;;10.68;2.13;;;7.80;99.90;;;;;;4991376;28;20465;-57
2023/01/08 06:59:56;;;;;;;14.93;2.42;;;7.80;99.90;;;;;;4980489;28;20041;-59
2023/01/08 07:02:22;;;;;;;6.25;1.88;;;7.70;99.90;;;;;;4990442;28;20042;-58
2023/01/08 07:04:48;;;;;;;7.28;2.03;;;7.70;99.90;;;;;;4992270;28;20061;-60
2023/01/08 07:07:14;;;;;;;6.40;2.13;;;7.70;99.90;;;;;;4981126;28;20904;-59
2023/01/08 07:09:41;;;;;;;4.30;1.50;;;7.70;99.90;;;;;;4982910;28;20074;-58
2023/01/08 07:12:14;;;;;;;6.47;1.77;;;7.70;99.90;;;;;;4982767;28;20541;-58
2023/01/08 07:14:40;;;;;;;7.15;1.85;;;7.70;99.90;;;;;;4981929;28;20409;-59
2023/01/08 07:17:06;;;;;;;8.90;1.88;;;7.60;99.90;;;;;;4984707;28;20042;-59
2023/01/08 07:19:33;;;;;;;7.15;2.63;;;7.60;99.90;;;;;;4971336;28;20034;-59
2023/01/08 07:21:59;;;;;;;9.25;2.22;;;7.60;99.90;;;;;;4969926;28;20039;-59
2023/01/08 07:24:24;;;;;;;9.35;2.70;;;7.60;99.90;;;;;;4966916;28;20042;-59
2023/01/08 07:26:50;;;;;;;15.93;3.20;;;7.60;99.90;;;;;;4980052;28;20049;-58
2023/01/08 07:29:16;;;;;;;13.25;3.22;;;7.60;99.90;;;;;;4966874;28;20042;-59
2023/01/08 07:31:41;;;;;;;7.55;2.50;;;7.60;99.90;;;;;;4985490;28;20373;-60
2023/01/08 07:34:07;;;;;;;6.90;2.80;;;7.50;99.90;;;;;;4976629;28;20634;-59
2023/01/08 07:36:33;;;;;;;9.73;2.50;;;7.60;99.90;;;;;;4961553;28;20049;-59
2023/01/08 07:38:59;;;;;;;7.18;2.80;;;7.60;99.90;;;;;;4984163;28;20053;-59
2023/01/08 07:41:25;;;;;;;7.32;3.13;;;7.60;99.90;;;;;;4987914;28;20097;-59
2023/01/08 07:43:51;;;;;;;7.20;3.40;;;7.50;99.90;;;;;;4998257;28;20034;-59
2023/01/08 07:46:17;;;;;;;8.32;3.30;;;7.50;99.90;;;;;;4982591;28;20096;-59
2023/01/08 07:48:43;;;;;;;9.57;3.90;;;7.60;99.90;;;;;;4967479;28;20496;-60
2023/01/08 07:51:09;;;;;;;9.95;4.72;;;7.60;99.90;;;;;;4980267;28;20038;-59
2023/01/08 07:53:36;;;;;;;8.20;4.22;;;7.60;99.90;;;;;;4982404;28;20524;-60
2023/01/08 07:56:07;;;;;;;8.23;3.80;;;7.60;99.90;;;;;;4982917;28;20408;-60
2023/01/08 07:58:33;;;;;;;8.50;4.60;;;7.60;99.90;;;;;;4986420;28;20533;-59
2023/01/08 08:00:59;;;;;;;10.52;4.47;;;7.60;99.90;;;;;;4961076;28;20048;-59
2023/01/08 08:03:25;;;;;;;9.43;4.60;;;7.60;99.90;;;;;;4962675;28;20497;-60
2023/01/08 08:05:51;;;;;;;8.95;4.38;;;7.60;99.90;;;;;;4962667;28;20042;-58
2023/01/08 08:08:17;;;;;;;8.00;4.10;;;7.60;99.90;;;;;;4972761;28;20041;-58
2023/01/08 08:10:44;;;;;;;9.32;4.68;;;7.60;99.90;;;;;;4969466;28;20038;-59
2023/01/08 08:13:10;;;;;;;8.80;4.53;;;7.60;99.90;;;;;;4984996;28;20133;-59
2023/01/08 08:15:37;;;;;;;8.27;4.15;;;7.60;99.90;;;;;;4989957;28;20451;-58
2023/01/08 08:18:04;;;;;;;13.80;4.05;;;7.60;99.90;;;;;;4985275;28;20042;-59
2023/01/08 08:20:30;;;;;;;12.63;4.07;;;7.60;99.90;;;;;;4985280;28;20034;-59
2023/01/08 08:23:08;;;;;;;9.00;3.35;;;7.50;99.90;;;;;;4988159;28;20042;-59
2023/01/08 08:25:34;;;;;;;8.77;3.25;;;7.60;99.90;;;;;;4982802;28;20513;-60
2023/01/08 08:28:01;;;;;;;10.10;3.75;;;7.60;99.90;;;;;;4985362;28;20421;-60
2023/01/08 08:30:28;;;;;;;9.98;3.40;;;7.60;99.90;;;;;;4988061;28;20039;-59
2023/01/08 08:32:54;;;;;;;10.23;3.13;;;7.60;99.90;;;;;;4950655;28;20042;-60
2023/01/08 08:35:21;;;;;;;9.77;2.80;;;7.60;99.90;;;;;;4969468;28;20133;-58
2023/01/08 08:37:47;;;;;;;8.40;2.83;;;7.60;99.90;;;;;;4980700;28;20677;-59
2023/01/08 08:40:12;;;;;;;10.10;3.13;;;7.60;99.90;;;;;;4968929;28;20092;-59
2023/01/08 08:42:38;;;;;;;10.75;2.88;;;7.60;99.90;;;;;;4980373;28;20865;-59
2023/01/08 08:45:04;;;;;;;11.75;2.97;;;7.60;99.90;;;;;;4979159;28;20466;-60
2023/01/08 08:47:30;;;;;;;12.43;3.08;;;7.60;99.90;;;;;;4984250;28;20046;-59
2023/01/08 08:49:56;;;;;;;8.35;2.35;;;7.60;99.90;;;;;;4980185;28;20034;-59
2023/01/08 08:52:22;;;;;;;11.38;2.95;;;7.60;99.90;;;;;;4982981;28;20081;-59
2023/01/08 08:54:47;;;;;;;11.35;2.85;;;7.60;99.90;;;;;;4983312;28;20073;-60
2023/01/08 08:57:13;;;;;;;8.95;2.30;;;7.60;99.90;;;;;;4977889;28;20184;-60
2023/01/08 08:59:39;;;;;;;11.55;3.40;;;7.60;99.90;;;;;;4968208;28;20042;-60
2023/01/08 09:02:05;;;;;;;13.88;2.38;;;7.70;99.90;;;;;;4951756;28;20042;-58
2023/01/08 09:04:32;;;;;;;14.48;2.63;;;7.70;99.90;;;;;;4981640;28;20041;-60
2023/01/08 09:06:58;;;;;;;7.88;2.30;;;7.70;99.90;;;;;;4984626;28;20052;-60
2023/01/08 09:09:24;;;;;;;9.02;2.83;;;7.70;99.90;;;;;;4978850;28;20042;-59
2023/01/08 09:11:51;;;;;;;7.35;2.13;;;7.70;99.90;;;;;;4989124;28;20129;-59
2023/01/08 09:14:16;;;;;;;14.05;2.65;;;7.80;99.90;;;;;;4981378;28;20442;-60
2023/01/08 09:16:42;;;;;;;7.15;2.33;;;7.80;99.90;;;;;;4981914;28;20143;-59
2023/01/08 09:19:09;;;;;;;9.55;2.63;;;7.80;99.90;;;;;;4980986;28;20096;-59
2023/01/08 09:21:35;;;;;;;13.43;2.80;;;7.80;99.90;;;;;;4981617;28;20256;-59
2023/01/08 09:24:01;;;;;;;6.68;2.10;;;7.90;99.90;;;;;;4995618;28;20049;-58
2023/01/08 09:26:27;;;;;;;11.35;2.78;;;7.90;99.90;;;;;;4980567;28;20038;-59
2023/01/08 09:28:53;;;;;;;8.95;3.08;;;7.90;99.90;;;;;;4981154;28;20101;-58
2023/01/08 09:31:19;;;;;;;7.78;2.60;;;8.00;99.90;;;;;;4981951;28;20394;-56
2023/01/08 09:33:47;;;;;;;8.18;2.10;;;8.00;99.90;;;;;;4981204;28;20034;-59
2023/01/08 09:36:13;;;;;;;10.70;3.42;;;8.10;99.90;;;;;;5010358;23;20053;-60
2023/01/08 09:38:39;;;;;;;5.57;2.38;;;8.10;99.90;;;;;;5016248;28;20065;-60
2023/01/08 09:41:10;;;;;;;7.05;2.20;;;8.10;99.90;;;;;;5015486;28;20064;-61
2023/01/08 09:43:42;;;;;;;8.68;2.13;;;8.10;99.90;;;;;;5020007;28;20042;-60
2023/01/08 09:46:09;;;;;;;8.43;2.55;;;8.20;99.90;;;;;;4995942;23;20539;-62
2023/01/08 09:48:37;;;;;;;9.52;2.40;;;8.20;99.90;;;;;;4995124;28;20034;-62
2023/01/08 09:51:03;;;;;;;9.73;2.63;;;8.30;99.90;;;;;;4996230;28;20041;-62
2023/01/08 09:53:31;;;;;;;9.57;2.78;;;8.30;99.90;;;;;;4960368;28;20046;-63
2023/01/08 09:56:03;;;;;;;14.45;2.70;;;8.30;99.90;;;;;;4962260;28;20430;-63
2023/01/08 09:58:37;;;;;;;7.03;1.98;;;8.40;99.90;;;;;;4959607;28;20515;-64
2023/01/08 10:01:03;;;;;;;;;;;8.40;99.90;;;;;;4968462;28;20437;-63
2023/01/08 10:03:42;;;;;;;10.65;2.30;;;8.40;99.90;;;;;;4960513;28;20297;-62
2023/01/08 10:06:10;;;;;;;6.28;2.40;;;8.50;99.90;;;;;;4961523;28;20522;-62
2023/01/08 10:08:37;;;;;;;8.25;2.30;;;8.60;99.90;;;;;;4964857;28;21727;-62
2023/01/08 10:11:04;;;;;;;12.73;2.30;;;8.50;99.90;;;;;;4960815;28;20094;-62
2023/01/08 10:13:30;;;;;;;7.57;2.58;;;8.60;99.90;;;;;;4978733;28;20052;-63
2023/01/08 10:15:56;;;;;;;7.82;2.40;;;8.60;99.90;;;;;;4964079;28;20035;-62
2023/01/08 10:18:25;;;;;;;10.25;2.25;;;8.70;99.90;;;;;;4963503;28;20541;-62
2023/01/08 10:20:51;;;;;;;10.75;2.58;;;8.70;99.90;;;;;;4965915;28;20345;-63
2023/01/08 10:23:19;;;;;;;9.23;3.10;;;8.80;99.90;;;;;;4980865;28;20386;-62
2023/01/08 10:25:47;;;;;;;9.80;2.28;;;8.80;99.90;;;;;;4962601;28;20047;-62
2023/01/08 10:28:22;;;;;;;9.38;2.88;;;8.80;99.90;;;;;;4963068;28;20061;-62
2023/01/08 10:30:50;;;;;;;9.68;2.20;;;8.90;99.90;;;;;;4966406;28;20050;-62
2023/01/08 10:33:23;;;;;;;9.43;2.22;;;8.90;99.90;;;;;;4965185;28;20126;-61
2023/01/08 10:35:56;;;;;;;12.30;2.30;;;8.90;99.90;;;;;;4968945;28;20042;-61
2023/01/08 10:38:25;;;;;;;9.57;2.28;;;9.00;99.90;;;;;;4961595;28;20102;-62
2023/01/08 10:40:51;;;;;;;16.02;2.58;;;9.00;99.90;;;;;;4967694;28;20042;-63
2023/01/08 10:43:25;;;;;;;9.55;2.97;;;9.00;99.90;;;;;;4964590;28;20050;-63
2023/01/08 10:45:58;;;;;;;;;;;9.10;99.90;;;;;;4969461;28;20050;-62
2023/01/08 10:48:32;;;;;;;11.38;2.72;;;9.10;99.90;;;;;;4963686;28;20067;-63
2023/01/08 10:51:11;;;;;;;11.80;2.45;;;9.20;99.90;;;;;;4966641;28;20112;-62
2023/01/08 10:53:39;;;;;;;9.30;2.92;;;9.20;99.90;;;;;;4967210;28;20043;-63
2023/01/08 10:56:05;;;;;;;8.80;2.63;;;9.20;99.90;;;;;;4966386;28;20533;-63
2023/01/08 10:58:40;;;;;;;9.45;2.90;;;9.30;99.90;;;;;;4968020;28;20049;-62
2023/01/08 11:01:14;;;;;;;11.88;2.20;;;9.30;99.90;;;;;;4978604;28;20042;-62
2023/01/08 11:03:41;;;;;;;11.65;2.55;;;9.30;99.90;;;;;;4962814;28;20125;-62
2023/01/08 11:06:12;;;;;;;10.45;2.47;;;9.30;99.90;;;;;;4982325;28;20104;-62
2023/01/08 11:08:38;;;;;;;14.07;2.63;;;9.30;99.90;;;;;;4967814;28;20089;-62
2023/01/08 11:11:07;;;;;;;8.20;2.75;;;9.40;99.90;;;;;;4963103;28;20038;-61
2023/01/08 11:13:33;;;;;;;13.80;2.20;;;9.40;99.90;;;;;;4958783;28;20039;-62
2023/01/08 11:16:09;;;;;;;8.52;2.15;;;9.50;99.90;;;;;;4959030;28;20054;-62
2023/01/08 11:18:55;;;;;;;10.88;2.15;;;9.50;99.90;;;;;;4969174;28;20485;-62
2023/01/08 11:21:26;;;;;;;13.23;1.92;;;9.50;99.90;;;;;;4967141;28;20482;-62
2023/01/08 11:24:17;;;;;;;12.38;2.30;;;9.60;99.90;;;;;;4964136;28;20526;-63
2023/01/08 11:27:11;;;;;;;14.05;2.35;;;9.50;99.90;;;;;;4968926;28;20058;-61
2023/01/08 11:29:56;;;;;;;;;;;9.60;99.90;;;;;;4968186;28;20054;-62
2023/01/08 11:32:48;;;;;;;9.52;2.15;;;9.50;99.90;;;;;;4968590;28;19918;-63
2023/01/08 11:35:27;;;;;;;6.45;2.05;;;9.60;99.90;;;;;;4963778;28;20066;-63
2023/01/08 11:37:58;;;;;;;11.15;3.47;;;9.60;99.90;;;;;;4960180;28;20058;-63
2023/01/08 11:40:33;;;;;;;10.85;2.35;;;9.60;99.90;;;;;;4968857;28;20046;-62
2023/01/08 11:43:20;;;;;;;13.95;3.60;;;9.50;99.90;;;;;;4968707;28;20046;-62
2023/01/08 11:45:58;;;;;;;12.88;2.25;;;9.50;99.90;;;;;;4966794;28;20043;-62
2023/01/08 11:48:23;;;;;;;8.48;2.03;;;9.50;99.90;;;;;;4963307;28;20225;-61
2023/01/08 11:51:09;;;;;;;10.52;2.67;;;9.60;99.90;;;;;;4960851;28;20038;-63
2023/01/08 11:53:46;;;;;;;8.85;2.67;;;9.70;99.90;;;;;;4963534;28;20117;-62
2023/01/08 11:56:30;;;;;;;10.85;2.78;;;9.70;99.90;;;;;;4967682;28;20565;-62
2023/01/08 11:59:08;;;;;;;7.75;2.55;;;9.60;99.90;;;;;;4968561;28;20116;-63
2023/01/08 12:02:06;;;;;;;12.32;3.35;;;9.50;99.90;;;;;;4958947;28;20165;-63
2023/01/08 12:04:56;;;;;;;14.75;3.20;;;9.50;99.90;;;;;;4927112;28;20058;-62
2023/01/08 12:07:39;;;;;;;8.65;2.65;;;9.50;99.90;;;;;;4963669;28;20043;-62
2023/01/08 12:10:17;;;;;;;10.65;2.53;;;9.60;99.90;;;;;;4955491;28;20110;-62
2023/01/08 12:13:27;;;;;;;12.23;3.15;;;9.60;99.90;;;;;;4966685;28;20069;-61
2023/01/08 12:16:02;;;;;;;13.73;3.58;;;9.70;99.90;;;;;;4968466;28;20042;-63
2023/01/08 12:18:46;;;;;;;13.48;3.90;;;9.70;99.90;;;;;;4971448;28;20051;-63
2023/01/08 12:21:22;;;;;;;9.77;2.47;;;9.70;99.90;;;;;;4982958;28;20256;-61
2023/01/08 12:24:51;;;;;;;10.48;2.85;;;9.70;99.90;;;;;;4959659;28;20039;-62
2023/01/08 12:27:22;;;;;;;5.93;2.30;;;9.70;99.90;;;;;;4927121;29;20102;-61
2023/01/08 12:30:00;;;;;;;12.43;2.85;;;9.70;99.90;;;;;;4930272;29;20557;-62
2023/01/08 12:32:35;;;;;;;10.15;3.30;;;9.70;99.90;;;;;;4937827;28;20059;-63
2023/01/08 12:35:35;;;;;;;13.43;3.00;;;9.70;99.90;;;;;;4970936;28;20049;-64
2023/01/08 12:38:07;;;;;;;14.90;2.97;;;9.70;99.90;;;;;;4966408;28;20042;-63
2023/01/08 12:40:45;;;;;;;11.27;3.10;;;9.60;99.90;;;;;;4960977;28;20043;-62
2023/01/08 12:43:31;;;;;;;5.93;2.63;;;9.60;99.90;;;;;;4950697;28;20043;-62
2023/01/08 12:46:01;;;;;;;10.65;3.05;;;9.60;99.90;;;;;;4963545;28;20153;-63
2023/01/08 12:48:30;;;;;;;14.38;3.58;;;9.60;99.90;;;;;;4942445;28;20042;-63
2023/01/08 12:51:18;;;;;;;10.40;3.38;;;9.60;99.90;;;;;;4972231;28;20515;-63
2023/01/08 12:54:11;;;;;;;13.70;3.38;;;9.60;99.90;;;;;;4967498;28;20046;-64
2023/01/08 12:56:49;;;;;;;11.88;3.42;;;9.60;99.90;;;;;;4962698;28;20042;-64
2023/01/08 12:59:22;;;;;;;11.48;3.47;;;9.60;99.90;;;;;;4966135;28;20038;-63
2023/01/08 13:02:06;;;;;;;13.90;3.28;;;9.50;99.90;;;;;;4948868;28;20062;-63
2023/01/08 13:04:41;;;;;;;11.20;3.22;;;9.50;99.90;;;;;;4963699;28;20470;-62
2023/01/08 13:07:16;;;;;;;10.75;3.70;;;9.50;99.90;;;;;;4967176;28;20469;-62
2023/01/08 13:09:43;;;;;;;11.63;3.63;;;9.50;99.90;;;;;;4965149;28;20038;-63